createdAt,value
2023-05-19T00:02:00.280Z,102765.44
2023-05-19T00:04:27.763Z,102777.91
2023-05-19T00:06:54.743Z,102774.69
2023-05-19T00:09:21.493Z,102768.03
2023-05-19T00:11:48.287Z,102769.94
2023-05-19T00:14:14.991Z,102771.16
2023-05-19T00:16:42.372Z,102767.63
2023-05-19T00:19:10.184Z,102767.34
2023-05-19T00:21:40.418Z,102767.03
2023-05-19T00:24:07.241Z,102754.63
2023-05-19T00:26:34.005Z,102755.25
2023-05-19T00:29:00.932Z,102747.47
2023-05-19T00:31:27.514Z,102747.19
2023-05-19T00:33:54.153Z,102745.28
2023-05-19T00:36:20.764Z,102747.53
2023-05-19T00:38:47.276Z,102748.41
2023-05-19T00:41:13.885Z,102746.97
2023-05-19T00:43:40.377Z,102741.44
2023-05-19T00:46:07.560Z,102743.16
2023-05-19T00:48:34.187Z,102742.22
2023-05-19T00:51:05.203Z,102742.25
2023-05-19T00:53:33.505Z,102744.25
2023-05-19T00:56:00.818Z,102742.72
2023-05-19T00:58:30.247Z,102741.09
2023-05-19T01:01:03.864Z,102740.31
2023-05-19T01:03:36.203Z,102739.56
2023-05-19T01:06:07.369Z,102742.06
2023-05-19T01:08:36.220Z,102742.50
2023-05-19T01:11:03.216Z,102747.47
2023-05-19T01:13:30.385Z,102743.03
2023-05-19T01:16:02.536Z,102747.19
2023-05-19T01:18:40.872Z,102746.59
2023-05-19T01:21:46.582Z,102748.59
2023-05-19T01:24:32.364Z,102749.44
2023-05-19T01:27:24.180Z,102743.06
2023-05-19T01:30:23.325Z,102736.34
2023-05-19T01:32:53.432Z,102734.13
2023-05-19T01:35:23.995Z,102733.91
2023-05-19T01:37:54.413Z,102732.81
2023-05-19T01:40:22.835Z,102735.59
2023-05-19T01:42:52.467Z,102734.78
2023-05-19T01:45:19.561Z,102724.25
2023-05-19T01:47:49.810Z,102725.41
2023-05-19T01:50:16.423Z,102722.69
2023-05-19T01:52:43.150Z,102723.44
2023-05-19T01:55:10.237Z,102728.19
2023-05-19T01:58:11.511Z,102723.47
2023-05-19T02:01:00.108Z,102723.25
2023-05-19T02:03:44.614Z,102718.78
2023-05-19T02:06:35.602Z,102718.72
2023-05-19T02:09:24.302Z,102719.25
2023-05-19T02:12:11.862Z,102719.53
2023-05-19T02:15:06.085Z,102720.97
2023-05-19T02:17:36.365Z,102713.34
2023-05-19T02:20:05.078Z,102718.22
2023-05-19T02:22:31.822Z,102717.13
2023-05-19T02:24:58.477Z,102706.06
2023-05-19T02:27:25.038Z,102712.91
2023-05-19T02:29:52.365Z,102713.38
2023-05-19T02:32:19.006Z,102708.69
2023-05-19T02:34:45.711Z,102712.81
2023-05-19T02:37:14.582Z,102706.06
2023-05-19T02:39:42.082Z,102705.13
2023-05-19T02:42:08.609Z,102710.00
2023-05-19T02:44:35.253Z,102702.16
2023-05-19T02:47:01.790Z,102702.31
2023-05-19T02:49:30.974Z,102692.13
2023-05-19T02:51:57.580Z,102690.09
2023-05-19T02:54:24.142Z,102698.19
2023-05-19T02:56:50.668Z,102692.69
2023-05-19T02:59:17.183Z,102701.69
2023-05-19T03:01:43.713Z,102692.47
2023-05-19T03:04:10.465Z,102687.59
2023-05-19T03:06:37.683Z,102693.28
2023-05-19T03:09:04.191Z,102692.81
2023-05-19T03:11:30.975Z,102691.03
2023-05-19T03:13:58.593Z,102685.28
2023-05-19T03:16:25.147Z,102688.63
2023-05-19T03:18:52.286Z,102695.66
2023-05-19T03:21:18.803Z,102686.00
2023-05-19T03:23:45.486Z,102690.03
2023-05-19T03:26:11.965Z,102697.34
2023-05-19T03:28:38.528Z,102690.22
2023-05-19T03:31:05.092Z,102688.13
2023-05-19T03:33:31.735Z,102693.25
2023-05-19T03:35:59.032Z,102696.16
2023-05-19T03:38:25.694Z,102691.09
2023-05-19T03:40:53.528Z,102693.22
2023-05-19T03:43:19.973Z,102691.03
2023-05-19T03:45:46.596Z,102694.06
2023-05-19T03:48:13.703Z,102693.53
2023-05-19T03:50:40.239Z,102689.41
2023-05-19T03:53:06.812Z,102691.84
2023-05-19T03:55:33.765Z,102690.03
2023-05-19T03:58:00.301Z,102686.81
2023-05-19T04:00:26.892Z,102693.31
2023-05-19T04:02:53.493Z,102692.78
2023-05-19T04:05:20.181Z,102695.50
2023-05-19T04:07:46.871Z,102691.31
2023-05-19T04:10:13.649Z,102689.94
2023-05-19T04:12:40.206Z,102689.63
2023-05-19T04:15:07.326Z,102699.38
2023-05-19T04:17:34.189Z,102696.63
2023-05-19T04:20:01.106Z,102696.91
2023-05-19T04:22:27.870Z,102694.97
2023-05-19T04:24:55.010Z,102703.25
2023-05-19T04:27:21.941Z,102700.78
2023-05-19T04:29:49.605Z,102702.72
2023-05-19T04:32:18.122Z,102702.44
2023-05-19T04:34:47.604Z,102701.78
2023-05-19T04:37:16.213Z,102702.03
2023-05-19T04:39:45.184Z,102704.16
2023-05-19T04:42:12.028Z,102707.13
2023-05-19T04:44:42.374Z,102700.59
2023-05-19T04:47:10.372Z,102700.06
2023-05-19T04:49:40.041Z,102703.66
2023-05-19T04:52:10.718Z,102701.97
2023-05-19T04:54:38.301Z,102707.84
2023-05-19T04:57:05.657Z,102710.72
2023-05-19T04:59:32.436Z,102711.22
2023-05-19T05:01:58.972Z,102713.59
2023-05-19T05:04:26.024Z,102708.13
2023-05-19T05:06:52.512Z,102709.72
2023-05-19T05:09:19.977Z,102711.84
2023-05-19T05:11:46.990Z,102711.84
2023-05-19T05:14:13.923Z,102712.50
2023-05-19T05:16:40.865Z,102708.44
2023-05-19T05:19:07.879Z,102717.38
2023-05-19T05:21:34.724Z,102712.91
2023-05-19T05:24:01.505Z,102721.81
2023-05-19T05:26:33.248Z,102722.25
2023-05-19T05:28:59.788Z,102719.50
2023-05-19T05:31:26.559Z,102717.72
2023-05-19T05:33:53.268Z,102713.88
2023-05-19T05:36:19.858Z,102722.19
2023-05-19T05:38:46.369Z,102713.50
2023-05-19T05:41:12.949Z,102715.16
2023-05-19T05:43:39.537Z,102715.09
2023-05-19T05:46:06.112Z,102710.69
2023-05-19T05:48:33.231Z,102717.78
2023-05-19T05:51:00.269Z,102718.25
2023-05-19T05:53:30.990Z,102716.97
2023-05-19T05:55:58.039Z,102716.63
2023-05-19T05:58:24.605Z,102719.88
2023-05-19T06:00:53.443Z,102723.44
2023-05-19T06:03:24.186Z,102717.81
2023-05-19T06:05:51.075Z,102717.44
2023-05-19T06:08:17.959Z,102711.91
2023-05-19T06:10:47.092Z,102721.84
2023-05-19T06:13:14.012Z,102719.13
2023-05-19T06:15:41.188Z,102713.13
2023-05-19T06:18:07.846Z,102712.84
2023-05-19T06:20:34.631Z,102714.75
2023-05-19T06:23:01.347Z,102711.31
2023-05-19T06:25:27.848Z,102709.91
2023-05-19T06:27:54.583Z,102705.47
2023-05-19T06:30:22.170Z,102701.50
2023-05-19T06:32:48.925Z,102700.47
2023-05-19T06:35:15.536Z,102711.13
2023-05-19T06:37:42.240Z,102704.16
2023-05-19T06:40:09.389Z,102699.72
2023-05-19T06:42:35.901Z,102693.25
2023-05-19T06:45:02.430Z,102704.97
2023-05-19T06:47:29.008Z,102700.88
2023-05-19T06:49:55.931Z,102702.81
2023-05-19T06:52:23.022Z,102705.31
2023-05-19T06:54:50.149Z,102710.34
2023-05-19T06:57:16.764Z,102706.06
2023-05-19T06:59:43.636Z,102706.59
2023-05-19T07:02:10.244Z,102704.41
2023-05-19T07:04:36.878Z,102717.13
2023-05-19T07:07:03.508Z,102707.22
2023-05-19T07:09:29.994Z,102713.16
2023-05-19T07:11:56.575Z,102715.00
2023-05-19T07:14:23.384Z,102707.00
2023-05-19T07:16:50.004Z,102710.75
2023-05-19T07:19:16.973Z,102711.22
2023-05-19T07:21:43.537Z,102708.50
2023-05-19T07:24:10.116Z,102704.31
2023-05-19T07:26:36.653Z,102704.16
2023-05-19T07:29:03.304Z,102713.31
2023-05-19T07:31:29.885Z,102704.66
2023-05-19T07:33:57.266Z,102698.38
2023-05-19T07:36:23.831Z,102710.41
2023-05-19T07:38:50.608Z,102706.69
2023-05-19T07:41:17.164Z,102714.84
2023-05-19T07:43:43.760Z,102701.84
2023-05-19T07:46:10.294Z,102695.69
2023-05-19T07:48:37.172Z,102705.66
2023-05-19T07:51:03.986Z,102700.66
2023-05-19T07:53:30.601Z,102700.47
2023-05-19T07:55:58.533Z,102707.50
2023-05-19T07:58:25.393Z,102690.25
2023-05-19T08:00:53.262Z,102697.34
2023-05-19T08:03:20.804Z,102699.75
2023-05-19T08:05:47.687Z,102698.88
2023-05-19T08:08:16.957Z,102695.53
2023-05-19T08:10:43.660Z,102683.91
2023-05-19T08:13:10.442Z,102681.59
2023-05-19T08:15:37.054Z,102679.91
2023-05-19T08:18:05.364Z,102682.91
2023-05-19T08:20:32.842Z,102687.50
2023-05-19T08:22:59.900Z,102685.03
2023-05-19T08:25:26.526Z,102678.09
2023-05-19T08:27:53.054Z,102677.53
2023-05-19T08:30:19.733Z,102681.34
2023-05-19T08:32:46.472Z,102667.03
2023-05-19T08:35:12.983Z,102671.50
2023-05-19T08:37:39.555Z,102671.00
2023-05-19T08:40:07.171Z,102669.31
2023-05-19T08:42:33.906Z,102664.06
2023-05-19T08:45:02.040Z,102659.69
2023-05-19T08:47:28.851Z,102661.19
2023-05-19T08:50:05.205Z,102654.94
2023-05-19T08:52:47.870Z,102653.66
2023-05-19T08:55:21.724Z,102639.66
2023-05-19T08:57:49.660Z,102642.25
2023-05-19T09:00:17.229Z,102646.28
2023-05-19T09:02:55.079Z,102639.03
2023-05-19T09:05:28.346Z,102630.00
2023-05-19T09:07:55.116Z,102622.09
2023-05-19T09:10:21.845Z,102634.25
2023-05-19T09:12:49.636Z,102620.53
2023-05-19T09:15:19.112Z,102622.63
2023-05-19T09:17:48.088Z,102615.72
2023-05-19T09:20:16.775Z,102620.16
2023-05-19T09:22:50.695Z,102615.09
2023-05-19T09:25:22.919Z,102626.84
2023-05-19T09:27:50.575Z,102626.44
2023-05-19T09:30:17.963Z,102616.69
2023-05-19T09:32:45.489Z,102617.72
2023-05-19T09:35:16.993Z,102616.50
2023-05-19T09:37:44.071Z,102611.06
2023-05-19T09:40:11.916Z,102620.06
2023-05-19T09:42:40.574Z,102611.94
2023-05-19T09:45:09.360Z,102616.38
2023-05-19T09:47:38.173Z,102625.00
2023-05-19T09:50:09.257Z,102614.78
2023-05-19T09:52:37.245Z,102615.34
2023-05-19T09:55:05.219Z,102617.47
2023-05-19T09:57:38.610Z,102612.50
2023-05-19T10:00:15.836Z,102608.16
2023-05-19T10:02:46.997Z,102608.78
2023-05-19T10:05:17.820Z,102608.09
2023-05-19T10:07:45.786Z,102608.88
2023-05-19T10:10:13.971Z,102616.66
2023-05-19T10:12:41.542Z,102609.22
2023-05-19T10:15:12.730Z,102603.53
2023-05-19T10:17:40.718Z,102600.97
2023-05-19T10:20:17.505Z,102595.63
2023-05-19T10:22:46.257Z,102594.22
2023-05-19T10:25:18.744Z,102594.53
2023-05-19T10:27:53.252Z,102596.22
2023-05-19T10:30:30.176Z,102602.88
2023-05-19T10:32:59.365Z,102594.16
2023-05-19T10:35:56.872Z,102597.28
2023-05-19T10:38:42.928Z,102583.47
2023-05-19T10:41:35.082Z,102582.34
2023-05-19T10:44:09.975Z,102581.09
2023-05-19T10:46:36.667Z,102583.19
2023-05-19T10:49:03.303Z,102575.66
2023-05-19T10:51:34.004Z,102580.66
2023-05-19T10:54:10.972Z,102587.53
2023-05-19T10:56:42.403Z,102587.81
2023-05-19T10:59:32.982Z,102584.94
2023-05-19T11:02:04.834Z,102585.22
2023-05-19T11:04:48.861Z,102583.69
2023-05-19T11:07:19.539Z,102577.16
2023-05-19T11:09:51.566Z,102576.66
2023-05-19T11:12:24.784Z,102566.00
2023-05-19T11:14:55.507Z,102567.69
2023-05-19T11:17:25.389Z,102556.69
2023-05-19T11:19:56.516Z,102558.44
2023-05-19T11:22:29.276Z,102559.94
2023-05-19T11:24:56.469Z,102558.25
2023-05-19T11:27:35.544Z,102561.38
2023-05-19T11:30:14.869Z,102560.81
2023-05-19T11:32:44.569Z,102554.06
2023-05-19T11:35:11.319Z,102544.88
2023-05-19T11:37:37.935Z,102554.31
2023-05-19T11:40:09.392Z,102554.56
2023-05-19T11:42:37.094Z,102548.84
2023-05-19T11:45:06.964Z,102549.78
2023-05-19T11:47:42.086Z,102545.72
2023-05-19T11:50:13.988Z,102533.00
2023-05-19T11:52:44.976Z,102549.16
2023-05-19T11:55:19.065Z,102536.09
2023-05-19T11:58:04.541Z,102529.75
2023-05-19T12:00:39.236Z,102541.88
2023-05-19T12:03:06.868Z,102530.00
2023-05-19T12:05:39.910Z,102539.50
2023-05-19T12:08:08.867Z,102528.00
2023-05-19T12:10:35.905Z,102542.50
2023-05-19T12:13:03.652Z,102543.88
2023-05-19T12:15:32.553Z,102538.38
2023-05-19T12:18:00.969Z,102533.63
2023-05-19T12:20:29.268Z,102527.97
2023-05-19T12:22:56.355Z,102523.09
2023-05-19T12:25:23.662Z,102537.28
2023-05-19T12:27:52.735Z,102537.66
2023-05-19T12:30:26.131Z,102530.88
2023-05-19T12:32:53.962Z,102527.53
2023-05-19T12:35:20.619Z,102516.47
2023-05-19T12:37:49.133Z,102516.56
2023-05-19T12:40:16.888Z,102517.75
2023-05-19T12:42:48.170Z,102520.44
2023-05-19T12:45:15.273Z,102514.84
2023-05-19T12:47:41.885Z,102518.41
2023-05-19T12:50:10.341Z,102508.94
2023-05-19T12:53:03.110Z,102504.53
2023-05-19T12:55:30.029Z,102495.44
2023-05-19T12:57:58.164Z,102495.03
2023-05-19T13:00:28.114Z,102504.72
2023-05-19T13:03:08.650Z,102489.63
2023-05-19T13:05:40.560Z,102487.44
2023-05-19T13:08:09.386Z,102478.59
2023-05-19T13:10:38.408Z,102478.06
2023-05-19T13:13:05.873Z,102485.78
2023-05-19T13:15:37.645Z,102490.28
2023-05-19T13:18:06.758Z,102487.44
2023-05-19T13:20:34.394Z,102480.34
2023-05-19T13:23:01.451Z,102484.53
2023-05-19T13:25:28.490Z,102480.19
2023-05-19T13:27:56.689Z,102480.03
2023-05-19T13:30:23.800Z,102473.53
2023-05-19T13:32:52.475Z,102473.88
2023-05-19T13:35:19.738Z,102475.91
2023-05-19T13:37:46.413Z,102476.22
2023-05-19T13:40:13.513Z,102471.88
2023-05-19T13:42:40.812Z,102462.09
2023-05-19T13:45:07.952Z,102470.63
2023-05-19T13:47:34.499Z,102458.97
2023-05-19T13:50:02.318Z,102457.34
2023-05-19T13:52:30.484Z,102452.38
2023-05-19T13:54:57.354Z,102458.19
2023-05-19T13:57:25.459Z,102459.34
2023-05-19T14:00:02.044Z,102457.53
2023-05-19T14:02:29.969Z,102456.03
2023-05-19T14:04:56.832Z,102451.28
2023-05-19T14:07:23.628Z,102455.19
2023-05-19T14:09:51.205Z,102446.00
2023-05-19T14:12:17.902Z,102448.38
2023-05-19T14:14:44.696Z,102441.94
2023-05-19T14:17:12.262Z,102451.97
2023-05-19T14:19:38.927Z,102447.75
2023-05-19T14:22:05.969Z,102442.53
2023-05-19T14:24:32.582Z,102431.13
2023-05-19T14:26:59.111Z,102437.81
2023-05-19T14:29:25.642Z,102448.41
2023-05-19T14:31:52.281Z,102436.44
2023-05-19T14:34:21.136Z,102437.97
2023-05-19T14:36:48.743Z,102437.81
2023-05-19T14:39:15.562Z,102424.53
2023-05-19T14:41:42.308Z,102427.34
2023-05-19T14:44:08.847Z,102432.72
2023-05-19T14:46:35.545Z,102416.94
2023-05-19T14:49:03.284Z,102416.75
2023-05-19T14:51:29.812Z,102416.84
2023-05-19T14:53:56.460Z,102413.25
2023-05-19T14:56:23.024Z,102409.81
2023-05-19T14:58:49.531Z,102419.34
2023-05-19T15:01:16.047Z,102420.44
2023-05-19T15:03:42.684Z,102425.63
2023-05-19T15:06:10.750Z,102420.47
2023-05-19T15:08:37.857Z,102412.16
2023-05-19T15:11:04.637Z,102420.22
2023-05-19T15:13:31.119Z,102413.31
2023-05-19T15:16:12.300Z,102411.44
2023-05-19T15:18:42.680Z,102411.91
2023-05-19T15:21:09.293Z,102411.97
2023-05-19T15:23:35.806Z,102407.19
2023-05-19T15:26:02.445Z,102411.47
2023-05-19T15:28:29.012Z,102410.97
2023-05-19T15:30:55.586Z,102407.97
2023-05-19T15:33:22.158Z,102406.81
2023-05-19T15:35:51.701Z,102400.16
2023-05-19T15:38:21.165Z,102420.09
2023-05-19T15:40:47.730Z,102403.31
2023-05-19T15:43:14.397Z,102400.22
2023-05-19T15:45:41.040Z,102398.28
2023-05-19T15:48:07.865Z,102397.41
2023-05-19T15:50:34.709Z,102390.69
2023-05-19T15:53:01.545Z,102398.50
2023-05-19T15:55:28.141Z,102400.47
2023-05-19T15:57:54.670Z,102399.69
2023-05-19T16:00:21.510Z,102396.31
2023-05-19T16:02:48.219Z,102386.16
2023-05-19T16:05:14.785Z,102383.00
2023-05-19T16:07:42.110Z,102384.91
2023-05-19T16:10:09.139Z,102373.56
2023-05-19T16:12:36.586Z,102382.69
2023-05-19T16:15:03.729Z,102374.91
2023-05-19T16:17:30.471Z,102379.59
2023-05-19T16:19:57.236Z,102375.13
2023-05-19T16:22:24.865Z,102374.78
2023-05-19T16:24:52.358Z,102371.56
2023-05-19T16:27:19.197Z,102380.13
2023-05-19T16:29:45.939Z,102373.53
2023-05-19T16:32:12.902Z,102366.19
2023-05-19T16:34:39.765Z,102363.66
2023-05-19T16:37:06.607Z,102369.91
2023-05-19T16:39:35.964Z,102373.59
2023-05-19T16:42:03.330Z,102381.81
2023-05-19T16:44:29.884Z,102369.38
2023-05-19T16:46:56.410Z,102368.88
2023-05-19T16:49:22.946Z,102359.50
2023-05-19T16:51:49.754Z,102367.13
2023-05-19T16:54:16.266Z,102370.25
2023-05-19T16:56:42.754Z,102361.50
2023-05-19T16:59:09.610Z,102369.00
2023-05-19T17:01:36.223Z,102362.53
2023-05-19T17:04:02.817Z,102357.50
2023-05-19T17:06:29.382Z,102376.59
2023-05-19T17:08:55.980Z,102365.06
2023-05-19T17:11:22.878Z,102371.59
2023-05-19T17:13:49.464Z,102365.69
2023-05-19T17:16:16.121Z,102375.78
2023-05-19T17:18:43.832Z,102373.16
2023-05-19T17:21:10.692Z,102373.25
2023-05-19T17:23:37.926Z,102377.19
2023-05-19T17:26:04.945Z,102372.94
2023-05-19T17:28:31.750Z,102372.13
2023-05-19T17:30:58.453Z,102372.78
2023-05-19T17:33:25.015Z,102379.75
2023-05-19T17:35:51.704Z,102380.63
2023-05-19T17:38:18.244Z,102379.34
2023-05-19T17:40:44.816Z,102372.25
2023-05-19T17:43:11.371Z,102368.31
2023-05-19T17:45:37.955Z,102368.66
2023-05-19T17:48:05.002Z,102370.78
2023-05-19T17:50:31.893Z,102377.31
2023-05-19T17:52:58.880Z,102374.41
2023-05-19T17:55:30.109Z,102365.31
2023-05-19T17:57:57.380Z,102374.75
2023-05-19T18:00:25.178Z,102374.75
2023-05-19T18:02:52.393Z,102370.06
2023-05-19T18:05:19.403Z,102372.47
2023-05-19T18:07:46.258Z,102373.69
2023-05-19T18:10:15.384Z,102379.78
2023-05-19T18:12:41.983Z,102378.22
2023-05-19T18:15:08.854Z,102379.63
2023-05-19T18:17:35.520Z,102382.03
2023-05-19T18:20:02.377Z,102380.03
2023-05-19T18:22:28.982Z,102384.72
2023-05-19T18:24:56.204Z,102388.56
2023-05-19T18:27:22.714Z,102383.22
2023-05-19T18:29:49.230Z,102388.97
2023-05-19T18:32:17.740Z,102391.22
2023-05-19T18:34:44.387Z,102387.19
2023-05-19T18:37:10.925Z,102392.44
2023-05-19T18:39:37.527Z,102391.53
2023-05-19T18:42:04.180Z,102398.50
2023-05-19T18:44:30.762Z,102393.72
2023-05-19T18:46:57.255Z,102403.75
2023-05-19T18:49:25.028Z,102402.44
2023-05-19T18:51:51.890Z,102406.16
2023-05-19T18:54:19.458Z,102409.84
2023-05-19T18:56:46.087Z,102409.44
2023-05-19T18:59:12.800Z,102411.78
2023-05-19T19:01:39.537Z,102413.22
2023-05-19T19:04:06.240Z,102412.53
2023-05-19T19:06:32.833Z,102409.66
2023-05-19T19:08:59.337Z,102418.59
2023-05-19T19:11:26.291Z,102424.28
2023-05-19T19:13:55.403Z,102426.53
2023-05-19T19:16:22.397Z,102432.84
2023-05-19T19:18:49.074Z,102429.28
2023-05-19T19:21:15.691Z,102426.53
2023-05-19T19:23:42.250Z,102433.66
2023-05-19T19:26:09.494Z,102430.28
2023-05-19T19:28:36.503Z,102434.72
2023-05-19T19:31:03.264Z,102428.78
2023-05-19T19:33:29.824Z,102436.22
2023-05-19T19:35:56.512Z,102441.06
2023-05-19T19:38:23.173Z,102447.00
2023-05-19T19:40:51.845Z,102440.97
2023-05-19T19:43:18.624Z,102448.75
2023-05-19T19:45:45.171Z,102443.63
2023-05-19T19:48:12.182Z,102459.31
2023-05-19T19:50:38.786Z,102461.44
2023-05-19T19:53:05.399Z,102464.41
2023-05-19T19:55:31.973Z,102471.56
2023-05-19T19:57:58.560Z,102464.41
2023-05-19T20:00:25.135Z,102469.59
2023-05-19T20:03:04.288Z,102474.53
2023-05-19T20:05:31.813Z,102476.25
2023-05-19T20:07:58.491Z,102469.97
2023-05-19T20:10:25.097Z,102478.78
2023-05-19T20:12:51.938Z,102479.09
2023-05-19T20:15:18.741Z,102473.63
2023-05-19T20:17:45.935Z,102472.28
2023-05-19T20:20:12.921Z,102469.19
2023-05-19T20:22:39.499Z,102467.25
2023-05-19T20:25:06.923Z,102476.53
2023-05-19T20:27:33.584Z,102480.66
2023-05-19T20:30:00.200Z,102476.53
2023-05-19T20:32:26.823Z,102475.66
2023-05-19T20:34:53.978Z,102480.63
2023-05-19T20:37:22.090Z,102488.97
2023-05-19T20:39:48.682Z,102479.63
2023-05-19T20:42:15.195Z,102481.69
2023-05-19T20:44:41.929Z,102489.06
2023-05-19T20:47:08.876Z,102485.78
2023-05-19T20:49:35.485Z,102490.91
2023-05-19T20:52:02.220Z,102496.69
2023-05-19T20:54:28.799Z,102490.97
2023-05-19T20:56:55.487Z,102497.25
2023-05-19T20:59:22.109Z,102498.19
2023-05-19T21:01:48.686Z,102499.97
2023-05-19T21:04:15.349Z,102500.38
2023-05-19T21:06:41.890Z,102494.19
2023-05-19T21:09:08.767Z,102496.56
2023-05-19T21:11:35.503Z,102505.09
2023-05-19T21:14:04.174Z,102502.56
2023-05-19T21:16:31.586Z,102498.34
2023-05-19T21:18:58.332Z,102504.91
2023-05-19T21:21:26.217Z,102503.66
2023-05-19T21:23:52.802Z,102507.78
2023-05-19T21:26:19.264Z,102512.94
2023-05-19T21:28:46.173Z,102516.00
2023-05-19T21:31:12.804Z,102519.94
2023-05-19T21:33:39.401Z,102517.25
2023-05-19T21:36:06.116Z,102513.91
2023-05-19T21:38:32.640Z,102512.13
2023-05-19T21:40:59.209Z,102521.59
2023-05-19T21:43:25.976Z,102520.00
2023-05-19T21:45:52.577Z,102522.72
2023-05-19T21:48:19.252Z,102523.00
2023-05-19T21:50:45.777Z,102525.72
2023-05-19T21:53:12.271Z,102521.47
2023-05-19T21:55:39.392Z,102522.31
2023-05-19T21:58:06.178Z,102521.19
2023-05-19T22:00:33.034Z,102533.81
2023-05-19T22:03:01.041Z,102533.34
2023-05-19T22:05:29.777Z,102540.25
2023-05-19T22:07:56.500Z,102527.09
2023-05-19T22:10:23.169Z,102528.22
2023-05-19T22:12:49.898Z,102525.78
2023-05-19T22:15:16.444Z,102515.97
2023-05-19T22:17:43.182Z,102524.53
2023-05-19T22:20:10.220Z,102526.03
2023-05-19T22:22:36.739Z,102523.63
2023-05-19T22:25:03.881Z,102533.41
2023-05-19T22:27:30.687Z,102528.75
2023-05-19T22:29:57.328Z,102536.59
2023-05-19T22:32:24.081Z,102540.94
2023-05-19T22:34:50.879Z,102540.19
2023-05-19T22:37:17.469Z,102537.78
2023-05-19T22:39:44.160Z,102535.72
2023-05-19T22:42:11.089Z,102530.94
2023-05-19T22:44:37.619Z,102526.00
2023-05-19T22:47:04.310Z,102526.97
2023-05-19T22:49:30.915Z,102532.91
2023-05-19T22:51:57.435Z,102528.44
2023-05-19T22:54:24.023Z,102529.84
2023-05-19T22:56:50.590Z,102531.63
2023-05-19T22:59:18.029Z,102532.75
2023-05-19T23:01:46.505Z,102517.66
2023-05-19T23:04:13.953Z,102525.19
2023-05-19T23:06:41.598Z,102520.06
2023-05-19T23:09:08.138Z,102525.53
2023-05-19T23:11:35.864Z,102522.84
2023-05-19T23:14:02.535Z,102526.38
2023-05-19T23:16:29.102Z,102519.19
2023-05-19T23:18:55.685Z,102525.31
2023-05-19T23:21:22.278Z,102524.66
2023-05-19T23:23:49.693Z,102516.16
2023-05-19T23:26:16.237Z,102512.97
2023-05-19T23:28:43.189Z,102523.06
2023-05-19T23:31:10.424Z,102517.94
2023-05-19T23:33:37.041Z,102520.16
2023-05-19T23:36:08.138Z,102519.34
2023-05-19T23:38:35.534Z,102515.03
2023-05-19T23:41:02.109Z,102514.09
2023-05-19T23:43:28.804Z,102524.22
2023-05-19T23:45:55.517Z,102527.41
2023-05-19T23:48:22.012Z,102526.16
2023-05-19T23:50:48.586Z,102524.06
2023-05-19T23:53:15.150Z,102520.38
2023-05-19T23:55:42.273Z,102507.72
2023-05-19T23:58:08.884Z,102514.28
